Aerodrome Latest Weathers

# Airport/Station Observation Time (Local Time) Wind Visibility (km) Weather Temp. (°C) Dewdrop (°C) Air Pressure (hPa)
Direction (from) Speed (km/h)
1 Sultan Iskandar Muda - Banda Aceh 2018-08-17 03:00:00 WIB Barat Daya 13.0 >=10 Cerah 28 20 1007
2 Cut Nyak Dien Nagan Raya - Meulaboh, NAD 2018-08-17 01:00:00 WIB Timur Laut 1.9 6.0 Berawan 25 25 1010
3 Binaka - Gunung Sitoli 2018-08-17 03:00:00 WIB Tenang 6.0 Cerah - berawan 24 24 1008
4 Kualanamu International Airport - Deli Serdang 2018-08-17 03:00:00 WIB Barat 5.6 3.5 Udara kabur 26 24 1007
5 Dr. Ferdinand Lumban Tobing - Pinangsori (Sibolga) 2018-08-17 03:00:00 WIB Barat 1.9 4.8 Udara kabur 24 24 1008
6 Aek Godang - Padang Sidempuan 2018-08-17 03:00:00 WIB Barat 11.1 7.0 Berawan 26 21 1008
7 Sultan Syarif Kasim II - Pekanbaru 2018-08-17 03:00:00 WIB Timur Laut 22.2 4.3 Hujan 25 24 1006
8 Sultan Thaha - Jambi 2018-08-17 02:00:00 WIB Selatan 7.4 7.0 Cerah - berawan 24 23 1008
9 Hang Nadim - Batam 2018-08-17 03:00:00 WIB Tenang >=10 Cerah - berawan 27 24 1009
10 Raja Haji Fisabilillah - Tanjung Pinang 2018-08-17 02:00:00 WIB Tenang 8.0 Cerah - berawan 25 24 1008
11 Sultan Mahmud Badaruddin II - Palembang 2018-08-17 02:00:00 WIB Tenggara 5.6 8.0 Cerah - berawan 25 24 1009
12 Depati Amir - Pangkal Pinang 2018-08-17 03:00:00 WIB Selatan 11.1 7.0 Cerah - berawan 24 22 1008
13 Budiarto - Curug 2018-08-17 03:00:00 WIB Barat 3.7 7.0 Berawan 22 22 1010
14 Soekarno Hatta - Jakarta 2018-08-17 03:00:00 WIB Barat Daya 7.4 8.0 Berawan 26 22 1009
15 Suryadarma - Kalijati, Subang 2018-08-17 03:00:00 WIB Selatan 1.9 9.0 Berawan 20 20 1010
16 H.A.S. Hanandjoeddin - Tanjung Pandan 2018-08-17 01:00:00 WIB Selatan 5.6 6.0 Cerah - berawan 22 22 1009
17 Kertajati 2018-08-17 03:00:00 WIB Selatan 18.5 >=10 Berawan 24 16 1009
18 Supadio - Pontianak 2018-08-17 02:00:00 WIB Tenggara 5.6 3.0 Berasap 25 23 1007
19 Rahadi Osman - Ketapang 2018-08-17 03:00:00 WIB Tenggara 7.4 Cerah 23 22 1008
20 Ahmad Yani - Semarang 2018-08-17 03:00:00 WIB Barat Daya 5.6 >=10 Cerah - berawan 22 17 1010
21 Iskandar - Pangkalan Bun 2018-08-17 01:30:00 WIB Tenang 6.0 Berawan 23 22 1008
22 Juanda - Surabaya 2018-08-17 02:30:00 WIB Barat 9.3 5.0 Udara kabur 22 17 1010
23 Pangsuma - Putussibau 2018-08-17 03:00:00 WIB Utara 1.9 Cerah 24 24 1008
24 Haji Asan - Sampit 2018-08-17 03:00:00 WIB Tenang 8.0 Cerah - berawan 21 20 1008
25 Syamsudin Noor - Banjarmasin 2018-08-17 04:07:00 WITA Variabel 3.7 3.9 Halimun 22 21 1007
26 Ngurah Rai - Denpasar 2018-08-17 04:00:00 WITA Tenggara 14.8 7.0 Hujan ringan 22 21 1010
27 Bandara Internasional Lombok - Praya 2018-08-17 04:00:00 WITA Tenang 4.1 Cerah - berawan 20 19 1010
28 Sepinggan - Balikpapan 2018-08-17 03:00:00 WITA Barat Daya 9.3 9.0 Berawan 27 23 1008
29 Tanjung Harapan - Tanjung Selor 2018-08-17 03:00:00 WITA Barat Daya 48.2 3.0 Guntur dan hujan 26 24 1007
30 Sultan Muhammad Kaharuddin - Sumbawa Besar 2018-08-17 02:00:00 WITA Tenggara 3.7 8.0 Cerah - berawan 23 20 1009
31 Kalimarau - Tanjung Redeb 2018-08-17 02:00:00 WITA Tenang 8.0 Berawan 25 24 1007
32 Juwata - Tarakan 2018-08-17 02:00:00 WITA Tenggara 1.9 8.0 Berawan 28 26 1006
33 Sultan Hasanuddin - Makassar 2018-08-17 04:00:00 WITA Variabel 3.7 8.0 Cerah - berawan 21 19 1008
34 Mutiara - Palu 2018-08-17 04:00:00 WITA Timur 3.7 8.0 Cerah - berawan 24 22 1009
35 Umbu Mehang Kunda - Waingapu 2018-08-17 02:00:00 WITA Tenang 5.0 Cerah - berawan 20 17 1011
36 Andi Jemma - Masamba 2018-08-17 04:00:00 WITA Tenang 8.0 Berawan 24 22 1008
37 Sultan Bantilan - Toli Toli 2018-08-17 02:00:00 WITA Timur 5.6 >=10 Cerah - berawan 25 23 1007
38 Fransiskus Xaverius Seda - Maumere 2018-08-17 04:00:00 WITA Selatan 11.1 8.0 Cerah - berawan 23 21 1010
39 Syukuran Aminuddin Amir - Luwuk 2018-08-17 04:00:00 WITA Barat 5.6 >=10 Berawan 24 20 1008
40 Djalaluddin - Gorontalo 2018-08-17 02:00:00 WITA Barat 3.7 >=10 Berawan 25 23 1006
41 Gewayantana - Larantuka 2018-08-17 04:00:00 WITA Tenang 8.0 Cerah - berawan 21 19 1009
42 David Constantijn Saudale / Lekunik - Rote 2018-08-17 03:00:00 WITA Tenggara 11.1 Cerah 23 19 1014
43 El Tari - Kupang 2018-08-17 04:00:00 WITA Tenggara 16.7 >=10 Cerah - berawan 24 21 1010
44 Mali Kalabahi - Alor 2018-08-17 02:00:00 WITA Tenang 8.0 Berawan 23 22 1009
45 Sam Ratulangi - Manado 2018-08-17 04:00:00 WITA Tenggara 7.4 >=10 Cerah - berawan 24 22 1008
46 Namlea 2018-08-17 03:00:00 WIT Selatan 11.1 >=10 Cerah - berawan 25 23 1007
47 Sultan Babullah - Ternate 2018-08-17 05:00:00 WIT Selatan 13.0 >=10 Berawan 27 24 1008
48 Pattimura - Ambon 2018-08-17 05:00:00 WIT Utara 11.1 >=10 Berawan 23 22 1009
49 Amahai 2018-08-17 03:00:00 WIT Timur Laut 3.7 >=10 Berawan 23 22 1009
50 Bandaneira - Banda 2018-08-17 05:00:00 WIT Timur 13.0 7.0 Berawan 25 21 1009
51 Seigun - Sorong Kota 2018-08-17 03:30:00 WIT Timur 5.6 6.0 Cerah - berawan 24 24 1008
52 Mathilda Batlayeri - Saumlaki 2018-08-17 05:00:00 WIT Timur 9.3 >=10 Cerah - berawan 24 21 1010
53 Dumatubun - Langgur 2018-08-17 03:00:00 WIT Tenggara 5.6 6.0 Berawan 24 23 1009
54 Rendani - Manokwari 2018-08-17 05:00:00 WIT Tenang 5.0 Cerah - berawan 25 24 1006
55 Frans Kaisiepo - Biak 2018-08-17 05:00:00 WIT Utara 3.7 >=10 Berawan 26 25 1007
56 Moses Kilangin - Timika 2018-08-17 05:00:00 WIT Tenang 7.0 Berawan 24 23 1011
57 Wamena 2018-08-17 05:00:00 WIT Barat Laut 3.7 2.0 Halimun 15 15 1007
58 Mopah - Merauke 2018-08-17 03:00:00 WIT Tenggara 3.7 8.0 Berawan 23 21 1009
59 Sentani - Jayapura 2018-08-17 05:00:00 WIT Barat 5.6 9.0 Cerah - berawan 25 23 1008

Satellite Images

Wave Height Forecast

Wind Forecast

Forest Fires